sensor_id;sensor_type;location;lat;lon;timestamp;P1;durP1;ratioP1;P2;durP2;ratioP2
7074;SDS011;3578;51.568;6.932;2022-08-03T00:00:54;3.17;;;2.97;;
7074;SDS011;3578;51.568;6.932;2022-08-03T00:03:22;5.53;;;3.07;;
7074;SDS011;3578;51.568;6.932;2022-08-03T00:05:49;5.43;;;3.13;;
7074;SDS011;3578;51.568;6.932;2022-08-03T00:08:16;3.57;;;2.97;;
7074;SDS011;3578;51.568;6.932;2022-08-03T00:10:43;4.70;;;2.80;;
7074;SDS011;3578;51.568;6.932;2022-08-03T00:13:10;4.43;;;3.20;;
7074;SDS011;3578;51.568;6.932;2022-08-03T00:15:38;7.43;;;3.47;;
7074;SDS011;3578;51.568;6.932;2022-08-03T00:18:07;4.50;;;3.50;;
7074;SDS011;3578;51.568;6.932;2022-08-03T00:20:34;3.70;;;3.37;;
7074;SDS011;3578;51.568;6.932;2022-08-03T00:23:02;3.50;;;3.20;;
7074;SDS011;3578;51.568;6.932;2022-08-03T00:25:30;3.67;;;2.80;;
7074;SDS011;3578;51.568;6.932;2022-08-03T00:27:58;6.80;;;3.60;;
7074;SDS011;3578;51.568;6.932;2022-08-03T00:30:25;6.07;;;3.40;;
7074;SDS011;3578;51.568;6.932;2022-08-03T00:32:52;8.60;;;4.03;;
7074;SDS011;3578;51.568;6.932;2022-08-03T00:35:21;7.67;;;3.60;;
7074;SDS011;3578;51.568;6.932;2022-08-03T00:37:48;3.97;;;3.67;;
7074;SDS011;3578;51.568;6.932;2022-08-03T00:40:16;3.33;;;3.13;;
7074;SDS011;3578;51.568;6.932;2022-08-03T00:42:45;5.50;;;3.20;;
7074;SDS011;3578;51.568;6.932;2022-08-03T00:45:18;9.23;;;3.37;;
7074;SDS011;3578;51.568;6.932;2022-08-03T00:47:46;9.53;;;3.50;;
7074;SDS011;3578;51.568;6.932;2022-08-03T00:50:14;3.47;;;3.17;;
7074;SDS011;3578;51.568;6.932;2022-08-03T00:52:44;5.47;;;3.10;;
7074;SDS011;3578;51.568;6.932;2022-08-03T00:55:12;4.97;;;2.90;;
7074;SDS011;3578;51.568;6.932;2022-08-03T00:57:41;3.40;;;3.13;;
7074;SDS011;3578;51.568;6.932;2022-08-03T01:00:09;2.97;;;2.77;;
7074;SDS011;3578;51.568;6.932;2022-08-03T01:02:39;3.90;;;3.57;;
7074;SDS011;3578;51.568;6.932;2022-08-03T01:05:06;3.27;;;3.07;;
7074;SDS011;3578;51.568;6.932;2022-08-03T01:07:44;5.13;;;3.13;;
7074;SDS011;3578;51.568;6.932;2022-08-03T01:10:27;3.43;;;3.00;;
7074;SDS011;3578;51.568;6.932;2022-08-03T01:13:06;3.20;;;2.90;;
7074;SDS011;3578;51.568;6.932;2022-08-03T01:15:45;3.77;;;2.83;;
7074;SDS011;3578;51.568;6.932;2022-08-03T01:18:21;5.50;;;3.20;;
7074;SDS011;3578;51.568;6.932;2022-08-03T01:20:55;6.20;;;3.30;;
7074;SDS011;3578;51.568;6.932;2022-08-03T01:23:34;3.80;;;3.50;;
7074;SDS011;3578;51.568;6.932;2022-08-03T01:26:27;3.60;;;3.40;;
7074;SDS011;3578;51.568;6.932;2022-08-03T01:29:19;3.70;;;3.40;;
7074;SDS011;3578;51.568;6.932;2022-08-03T01:32:18;5.93;;;3.30;;
7074;SDS011;3578;51.568;6.932;2022-08-03T01:34:51;7.40;;;3.40;;
7074;SDS011;3578;51.568;6.932;2022-08-03T01:37:30;8.43;;;3.20;;
7074;SDS011;3578;51.568;6.932;2022-08-03T01:40:04;4.67;;;3.27;;
7074;SDS011;3578;51.568;6.932;2022-08-03T01:42:34;4.13;;;3.67;;
7074;SDS011;3578;51.568;6.932;2022-08-03T01:45:05;4.10;;;3.53;;
7074;SDS011;3578;51.568;6.932;2022-08-03T01:47:35;3.90;;;3.50;;
7074;SDS011;3578;51.568;6.932;2022-08-03T01:50:04;4.57;;;3.40;;
7074;SDS011;3578;51.568;6.932;2022-08-03T01:52:33;5.50;;;3.30;;
7074;SDS011;3578;51.568;6.932;2022-08-03T01:55:02;3.53;;;3.27;;
7074;SDS011;3578;51.568;6.932;2022-08-03T01:57:32;5.00;;;3.53;;
7074;SDS011;3578;51.568;6.932;2022-08-03T02:00:02;4.27;;;3.23;;
7074;SDS011;3578;51.568;6.932;2022-08-03T02:02:33;3.87;;;3.57;;
7074;SDS011;3578;51.568;6.932;2022-08-03T02:05:03;4.80;;;3.27;;
7074;SDS011;3578;51.568;6.932;2022-08-03T02:07:34;5.17;;;3.60;;
7074;SDS011;3578;51.568;6.932;2022-08-03T02:10:03;3.40;;;3.10;;
7074;SDS011;3578;51.568;6.932;2022-08-03T02:12:32;7.60;;;3.67;;
7074;SDS011;3578;51.568;6.932;2022-08-03T02:15:02;5.30;;;3.90;;
7074;SDS011;3578;51.568;6.932;2022-08-03T02:17:32;6.73;;;3.83;;
7074;SDS011;3578;51.568;6.932;2022-08-03T02:19:59;3.83;;;3.40;;
7074;SDS011;3578;51.568;6.932;2022-08-03T02:22:29;7.77;;;4.70;;
7074;SDS011;3578;51.568;6.932;2022-08-03T02:24:58;9.23;;;4.63;;
7074;SDS011;3578;51.568;6.932;2022-08-03T02:27:25;7.10;;;4.10;;
7074;SDS011;3578;51.568;6.932;2022-08-03T02:30:02;7.27;;;4.43;;
7074;SDS011;3578;51.568;6.932;2022-08-03T02:32:35;7.90;;;5.87;;
7074;SDS011;3578;51.568;6.932;2022-08-03T02:35:06;7.93;;;5.37;;
7074;SDS011;3578;51.568;6.932;2022-08-03T02:37:40;8.70;;;5.70;;
7074;SDS011;3578;51.568;6.932;2022-08-03T02:40:11;9.30;;;5.33;;
7074;SDS011;3578;51.568;6.932;2022-08-03T02:42:40;6.83;;;5.17;;
7074;SDS011;3578;51.568;6.932;2022-08-03T02:45:11;9.40;;;5.40;;
7074;SDS011;3578;51.568;6.932;2022-08-03T02:47:40;8.23;;;5.50;;
7074;SDS011;3578;51.568;6.932;2022-08-03T02:50:10;7.53;;;4.73;;
7074;SDS011;3578;51.568;6.932;2022-08-03T02:52:41;4.87;;;4.37;;
7074;SDS011;3578;51.568;6.932;2022-08-03T02:55:12;5.80;;;4.10;;
7074;SDS011;3578;51.568;6.932;2022-08-03T02:57:41;11.63;;;5.30;;
7074;SDS011;3578;51.568;6.932;2022-08-03T03:00:11;6.70;;;4.80;;
7074;SDS011;3578;51.568;6.932;2022-08-03T03:02:39;7.97;;;4.40;;
7074;SDS011;3578;51.568;6.932;2022-08-03T03:05:07;7.40;;;4.40;;
7074;SDS011;3578;51.568;6.932;2022-08-03T03:07:36;7.47;;;5.00;;
7074;SDS011;3578;51.568;6.932;2022-08-03T03:10:05;8.30;;;5.07;;
7074;SDS011;3578;51.568;6.932;2022-08-03T03:12:34;10.10;;;4.87;;
7074;SDS011;3578;51.568;6.932;2022-08-03T03:15:03;12.77;;;4.70;;
7074;SDS011;3578;51.568;6.932;2022-08-03T03:17:33;10.93;;;5.00;;
7074;SDS011;3578;51.568;6.932;2022-08-03T03:20:02;9.27;;;4.70;;
7074;SDS011;3578;51.568;6.932;2022-08-03T03:22:32;6.73;;;4.77;;
7074;SDS011;3578;51.568;6.932;2022-08-03T03:25:00;18.63;;;4.63;;
7074;SDS011;3578;51.568;6.932;2022-08-03T03:27:28;5.10;;;4.30;;
7074;SDS011;3578;51.568;6.932;2022-08-03T03:29:56;7.30;;;4.87;;
7074;SDS011;3578;51.568;6.932;2022-08-03T03:32:24;5.40;;;4.07;;
7074;SDS011;3578;51.568;6.932;2022-08-03T03:34:53;8.93;;;4.80;;
7074;SDS011;3578;51.568;6.932;2022-08-03T03:37:23;4.43;;;4.03;;
7074;SDS011;3578;51.568;6.932;2022-08-03T03:39:51;7.83;;;5.00;;
7074;SDS011;3578;51.568;6.932;2022-08-03T03:42:19;8.90;;;4.23;;
7074;SDS011;3578;51.568;6.932;2022-08-03T03:44:47;4.90;;;4.40;;
7074;SDS011;3578;51.568;6.932;2022-08-03T03:47:14;5.80;;;4.83;;
7074;SDS011;3578;51.568;6.932;2022-08-03T03:49:41;9.67;;;5.00;;
7074;SDS011;3578;51.568;6.932;2022-08-03T03:52:10;7.10;;;4.43;;
7074;SDS011;3578;51.568;6.932;2022-08-03T03:54:38;8.53;;;5.30;;
7074;SDS011;3578;51.568;6.932;2022-08-03T03:57:06;6.60;;;5.13;;
7074;SDS011;3578;51.568;6.932;2022-08-03T03:59:36;13.97;;;5.00;;
7074;SDS011;3578;51.568;6.932;2022-08-03T04:02:03;12.40;;;5.50;;
7074;SDS011;3578;51.568;6.932;2022-08-03T04:04:31;4.97;;;4.47;;
7074;SDS011;3578;51.568;6.932;2022-08-03T04:07:17;6.63;;;4.70;;
7074;SDS011;3578;51.568;6.932;2022-08-03T04:10:02;11.10;;;5.37;;
7074;SDS011;3578;51.568;6.932;2022-08-03T04:12:53;6.90;;;4.97;;
7074;SDS011;3578;51.568;6.932;2022-08-03T04:15:26;8.23;;;5.90;;
7074;SDS011;3578;51.568;6.932;2022-08-03T04:17:54;5.27;;;4.77;;
7074;SDS011;3578;51.568;6.932;2022-08-03T04:20:25;7.03;;;4.90;;
7074;SDS011;3578;51.568;6.932;2022-08-03T04:22:57;10.93;;;4.53;;
7074;SDS011;3578;51.568;6.932;2022-08-03T04:25:27;8.43;;;4.90;;
7074;SDS011;3578;51.568;6.932;2022-08-03T04:27:59;4.90;;;3.93;;
7074;SDS011;3578;51.568;6.932;2022-08-03T04:30:27;6.17;;;4.80;;
7074;SDS011;3578;51.568;6.932;2022-08-03T04:32:56;5.17;;;4.67;;
7074;SDS011;3578;51.568;6.932;2022-08-03T04:35:25;7.63;;;5.00;;
7074;SDS011;3578;51.568;6.932;2022-08-03T04:38:00;7.60;;;4.80;;
7074;SDS011;3578;51.568;6.932;2022-08-03T04:40:32;6.20;;;5.00;;
7074;SDS011;3578;51.568;6.932;2022-08-03T04:43:01;9.17;;;5.27;;
7074;SDS011;3578;51.568;6.932;2022-08-03T04:45:30;12.53;;;5.30;;
7074;SDS011;3578;51.568;6.932;2022-08-03T04:47:59;6.20;;;4.93;;
7074;SDS011;3578;51.568;6.932;2022-08-03T04:50:26;9.23;;;4.90;;
7074;SDS011;3578;51.568;6.932;2022-08-03T04:52:54;9.77;;;4.77;;
7074;SDS011;3578;51.568;6.932;2022-08-03T04:55:26;5.60;;;4.20;;
7074;SDS011;3578;51.568;6.932;2022-08-03T04:57:54;9.13;;;4.97;;
7074;SDS011;3578;51.568;6.932;2022-08-03T05:00:22;4.93;;;4.23;;
7074;SDS011;3578;51.568;6.932;2022-08-03T05:02:50;6.00;;;4.60;;
7074;SDS011;3578;51.568;6.932;2022-08-03T05:05:18;8.17;;;4.70;;
7074;SDS011;3578;51.568;6.932;2022-08-03T05:07:46;16.23;;;5.00;;
7074;SDS011;3578;51.568;6.932;2022-08-03T05:10:14;8.20;;;4.47;;
7074;SDS011;3578;51.568;6.932;2022-08-03T05:12:43;9.90;;;4.07;;
7074;SDS011;3578;51.568;6.932;2022-08-03T05:15:11;5.90;;;4.33;;
7074;SDS011;3578;51.568;6.932;2022-08-03T05:17:38;9.27;;;3.80;;
7074;SDS011;3578;51.568;6.932;2022-08-03T05:20:06;8.90;;;4.03;;
7074;SDS011;3578;51.568;6.932;2022-08-03T05:22:34;7.83;;;5.07;;
7074;SDS011;3578;51.568;6.932;2022-08-03T05:25:02;5.40;;;4.30;;
7074;SDS011;3578;51.568;6.932;2022-08-03T05:27:30;9.20;;;5.07;;
7074;SDS011;3578;51.568;6.932;2022-08-03T05:29:58;6.53;;;4.50;;
7074;SDS011;3578;51.568;6.932;2022-08-03T05:32:26;5.83;;;4.20;;
7074;SDS011;3578;51.568;6.932;2022-08-03T05:34:52;14.13;;;5.50;;
7074;SDS011;3578;51.568;6.932;2022-08-03T05:37:20;8.90;;;3.80;;
7074;SDS011;3578;51.568;6.932;2022-08-03T05:39:47;4.20;;;3.80;;
7074;SDS011;3578;51.568;6.932;2022-08-03T05:42:14;4.87;;;3.67;;
7074;SDS011;3578;51.568;6.932;2022-08-03T05:44:41;5.03;;;4.53;;
7074;SDS011;3578;51.568;6.932;2022-08-03T05:47:10;5.60;;;3.73;;
7074;SDS011;3578;51.568;6.932;2022-08-03T05:49:37;5.70;;;4.10;;
7074;SDS011;3578;51.568;6.932;2022-08-03T05:52:04;5.00;;;3.90;;
7074;SDS011;3578;51.568;6.932;2022-08-03T05:54:31;7.87;;;4.40;;
7074;SDS011;3578;51.568;6.932;2022-08-03T05:56:58;5.13;;;4.67;;
7074;SDS011;3578;51.568;6.932;2022-08-03T05:59:25;10.03;;;3.90;;
7074;SDS011;3578;51.568;6.932;2022-08-03T06:01:52;4.20;;;3.73;;
7074;SDS011;3578;51.568;6.932;2022-08-03T06:04:21;4.20;;;3.90;;
7074;SDS011;3578;51.568;6.932;2022-08-03T06:06:48;4.90;;;4.43;;
7074;SDS011;3578;51.568;6.932;2022-08-03T06:09:15;4.70;;;3.33;;
7074;SDS011;3578;51.568;6.932;2022-08-03T06:11:42;9.50;;;4.20;;
7074;SDS011;3578;51.568;6.932;2022-08-03T06:14:09;4.73;;;3.87;;
7074;SDS011;3578;51.568;6.932;2022-08-03T06:16:36;3.80;;;3.50;;
7074;SDS011;3578;51.568;6.932;2022-08-03T06:19:03;4.53;;;3.90;;
7074;SDS011;3578;51.568;6.932;2022-08-03T06:21:32;6.43;;;4.47;;
7074;SDS011;3578;51.568;6.932;2022-08-03T06:23:59;10.30;;;3.77;;
7074;SDS011;3578;51.568;6.932;2022-08-03T06:26:26;7.37;;;4.60;;
7074;SDS011;3578;51.568;6.932;2022-08-03T06:28:53;8.67;;;4.10;;
7074;SDS011;3578;51.568;6.932;2022-08-03T06:31:21;7.70;;;4.10;;
7074;SDS011;3578;51.568;6.932;2022-08-03T06:33:50;6.57;;;4.23;;
7074;SDS011;3578;51.568;6.932;2022-08-03T06:36:17;5.03;;;3.77;;
7074;SDS011;3578;51.568;6.932;2022-08-03T06:38:45;5.30;;;3.70;;
7074;SDS011;3578;51.568;6.932;2022-08-03T06:41:12;6.20;;;3.43;;
7074;SDS011;3578;51.568;6.932;2022-08-03T06:43:40;5.30;;;3.60;;
7074;SDS011;3578;51.568;6.932;2022-08-03T06:46:07;5.43;;;3.43;;
7074;SDS011;3578;51.568;6.932;2022-08-03T06:48:35;4.90;;;3.50;;
7074;SDS011;3578;51.568;6.932;2022-08-03T06:51:02;5.33;;;4.00;;
7074;SDS011;3578;51.568;6.932;2022-08-03T06:53:29;5.57;;;3.30;;
7074;SDS011;3578;51.568;6.932;2022-08-03T06:55:57;3.50;;;3.20;;
7074;SDS011;3578;51.568;6.932;2022-08-03T06:58:25;6.90;;;3.20;;
7074;SDS011;3578;51.568;6.932;2022-08-03T07:00:52;7.03;;;3.03;;
7074;SDS011;3578;51.568;6.932;2022-08-03T07:03:19;6.17;;;3.60;;
7074;SDS011;3578;51.568;6.932;2022-08-03T07:05:46;4.93;;;3.67;;
7074;SDS011;3578;51.568;6.932;2022-08-03T07:08:13;7.20;;;2.90;;
7074;SDS011;3578;51.568;6.932;2022-08-03T07:10:41;4.03;;;3.50;;
7074;SDS011;3578;51.568;6.932;2022-08-03T07:13:09;7.93;;;2.70;;
7074;SDS011;3578;51.568;6.932;2022-08-03T07:15:37;9.10;;;3.60;;
7074;SDS011;3578;51.568;6.932;2022-08-03T07:18:05;5.47;;;3.00;;
7074;SDS011;3578;51.568;6.932;2022-08-03T07:20:32;7.20;;;2.77;;
7074;SDS011;3578;51.568;6.932;2022-08-03T07:22:59;8.43;;;3.03;;
7074;SDS011;3578;51.568;6.932;2022-08-03T07:25:27;3.87;;;2.37;;
7074;SDS011;3578;51.568;6.932;2022-08-03T07:27:54;4.00;;;2.63;;
7074;SDS011;3578;51.568;6.932;2022-08-03T07:30:22;5.17;;;2.63;;
7074;SDS011;3578;51.568;6.932;2022-08-03T07:32:49;6.47;;;3.30;;
7074;SDS011;3578;51.568;6.932;2022-08-03T07:35:16;3.90;;;2.60;;
7074;SDS011;3578;51.568;6.932;2022-08-03T07:37:44;4.30;;;2.40;;
7074;SDS011;3578;51.568;6.932;2022-08-03T07:40:11;10.07;;;2.43;;
7074;SDS011;3578;51.568;6.932;2022-08-03T07:42:38;3.17;;;2.20;;
7074;SDS011;3578;51.568;6.932;2022-08-03T07:45:05;5.47;;;2.50;;
7074;SDS011;3578;51.568;6.932;2022-08-03T07:47:35;6.13;;;2.57;;
7074;SDS011;3578;51.568;6.932;2022-08-03T07:50:03;3.97;;;2.37;;
7074;SDS011;3578;51.568;6.932;2022-08-03T07:52:32;4.30;;;2.40;;
7074;SDS011;3578;51.568;6.932;2022-08-03T07:55:15;4.27;;;2.40;;
7074;SDS011;3578;51.568;6.932;2022-08-03T07:57:43;6.50;;;2.40;;
7074;SDS011;3578;51.568;6.932;2022-08-03T08:00:14;7.30;;;2.10;;
7074;SDS011;3578;51.568;6.932;2022-08-03T08:02:44;3.17;;;2.47;;
7074;SDS011;3578;51.568;6.932;2022-08-03T08:05:11;3.93;;;2.20;;
7074;SDS011;3578;51.568;6.932;2022-08-03T08:07:38;2.63;;;2.40;;
7074;SDS011;3578;51.568;6.932;2022-08-03T08:10:06;6.13;;;2.37;;
7074;SDS011;3578;51.568;6.932;2022-08-03T08:12:35;7.60;;;2.80;;
7074;SDS011;3578;51.568;6.932;2022-08-03T08:15:03;7.10;;;2.90;;
7074;SDS011;3578;51.568;6.932;2022-08-03T08:17:39;3.23;;;2.63;;
7074;SDS011;3578;51.568;6.932;2022-08-03T08:20:10;6.77;;;2.70;;
7074;SDS011;3578;51.568;6.932;2022-08-03T08:22:42;7.53;;;2.77;;
7074;SDS011;3578;51.568;6.932;2022-08-03T08:25:09;5.50;;;3.10;;
7074;SDS011;3578;51.568;6.932;2022-08-03T08:27:40;4.10;;;2.67;;
7074;SDS011;3578;51.568;6.932;2022-08-03T08:30:10;3.00;;;2.70;;
7074;SDS011;3578;51.568;6.932;2022-08-03T08:32:39;8.63;;;3.13;;
7074;SDS011;3578;51.568;6.932;2022-08-03T08:35:07;3.47;;;2.90;;
7074;SDS011;3578;51.568;6.932;2022-08-03T08:37:36;11.87;;;2.83;;
7074;SDS011;3578;51.568;6.932;2022-08-03T08:40:05;6.00;;;3.00;;
7074;SDS011;3578;51.568;6.932;2022-08-03T08:42:33;8.60;;;3.17;;
7074;SDS011;3578;51.568;6.932;2022-08-03T08:45:03;9.03;;;3.13;;
7074;SDS011;3578;51.568;6.932;2022-08-03T08:47:33;7.60;;;2.90;;
7074;SDS011;3578;51.568;6.932;2022-08-03T08:50:04;5.00;;;3.27;;
7074;SDS011;3578;51.568;6.932;2022-08-03T08:52:35;7.87;;;3.50;;
7074;SDS011;3578;51.568;6.932;2022-08-03T08:55:06;5.40;;;2.77;;
7074;SDS011;3578;51.568;6.932;2022-08-03T08:57:36;4.10;;;2.80;;
7074;SDS011;3578;51.568;6.932;2022-08-03T09:00:08;7.80;;;3.20;;
7074;SDS011;3578;51.568;6.932;2022-08-03T09:02:38;8.33;;;3.03;;
7074;SDS011;3578;51.568;6.932;2022-08-03T09:05:08;4.73;;;3.07;;
7074;SDS011;3578;51.568;6.932;2022-08-03T09:07:38;5.60;;;3.10;;
7074;SDS011;3578;51.568;6.932;2022-08-03T09:10:06;5.10;;;3.07;;
7074;SDS011;3578;51.568;6.932;2022-08-03T09:12:36;4.67;;;2.70;;
7074;SDS011;3578;51.568;6.932;2022-08-03T09:15:15;16.03;;;3.10;;
7074;SDS011;3578;51.568;6.932;2022-08-03T09:17:44;2.73;;;2.10;;
7074;SDS011;3578;51.568;6.932;2022-08-03T09:20:12;4.60;;;2.40;;
7074;SDS011;3578;51.568;6.932;2022-08-03T09:22:54;4.97;;;2.30;;
7074;SDS011;3578;51.568;6.932;2022-08-03T09:25:28;6.47;;;2.33;;
7074;SDS011;3578;51.568;6.932;2022-08-03T09:28:07;4.43;;;2.20;;
7074;SDS011;3578;51.568;6.932;2022-08-03T09:30:37;3.10;;;2.13;;
7074;SDS011;3578;51.568;6.932;2022-08-03T09:33:08;4.23;;;2.50;;
7074;SDS011;3578;51.568;6.932;2022-08-03T09:35:40;6.20;;;2.47;;
7074;SDS011;3578;51.568;6.932;2022-08-03T09:38:13;4.70;;;2.40;;
7074;SDS011;3578;51.568;6.932;2022-08-03T09:40:43;3.10;;;2.40;;
7074;SDS011;3578;51.568;6.932;2022-08-03T09:43:11;5.97;;;2.03;;
7074;SDS011;3578;51.568;6.932;2022-08-03T09:45:38;2.20;;;1.87;;
7074;SDS011;3578;51.568;6.932;2022-08-03T09:48:22;2.37;;;2.07;;
7074;SDS011;3578;51.568;6.932;2022-08-03T09:50:52;9.33;;;2.40;;
7074;SDS011;3578;51.568;6.932;2022-08-03T09:53:23;5.60;;;2.37;;
7074;SDS011;3578;51.568;6.932;2022-08-03T09:55:55;4.20;;;2.40;;
7074;SDS011;3578;51.568;6.932;2022-08-03T09:58:25;4.23;;;2.30;;
7074;SDS011;3578;51.568;6.932;2022-08-03T10:00:54;4.23;;;2.63;;
7074;SDS011;3578;51.568;6.932;2022-08-03T10:03:25;10.30;;;2.23;;
7074;SDS011;3578;51.568;6.932;2022-08-03T10:05:54;10.73;;;2.13;;
7074;SDS011;3578;51.568;6.932;2022-08-03T10:08:23;3.20;;;2.00;;
7074;SDS011;3578;51.568;6.932;2022-08-03T10:10:50;10.83;;;2.80;;
7074;SDS011;3578;51.568;6.932;2022-08-03T10:13:19;4.03;;;2.00;;
7074;SDS011;3578;51.568;6.932;2022-08-03T10:15:47;6.50;;;2.73;;
7074;SDS011;3578;51.568;6.932;2022-08-03T10:18:15;12.30;;;2.60;;
7074;SDS011;3578;51.568;6.932;2022-08-03T10:20:44;9.03;;;2.73;;
7074;SDS011;3578;51.568;6.932;2022-08-03T10:23:15;3.20;;;2.00;;
7074;SDS011;3578;51.568;6.932;2022-08-03T10:25:46;3.70;;;2.77;;
7074;SDS011;3578;51.568;6.932;2022-08-03T10:28:18;7.37;;;2.20;;
7074;SDS011;3578;51.568;6.932;2022-08-03T10:30:47;5.17;;;2.27;;
7074;SDS011;3578;51.568;6.932;2022-08-03T10:33:20;5.47;;;1.97;;
7074;SDS011;3578;51.568;6.932;2022-08-03T10:35:53;4.40;;;1.60;;
7074;SDS011;3578;51.568;6.932;2022-08-03T10:38:24;4.33;;;1.53;;
7074;SDS011;3578;51.568;6.932;2022-08-03T10:40:59;3.70;;;2.03;;
7074;SDS011;3578;51.568;6.932;2022-08-03T10:43:27;1.87;;;1.50;;
7074;SDS011;3578;51.568;6.932;2022-08-03T10:46:01;4.70;;;1.80;;
7074;SDS011;3578;51.568;6.932;2022-08-03T10:48:32;6.03;;;2.00;;
7074;SDS011;3578;51.568;6.932;2022-08-03T10:51:00;4.23;;;1.80;;
7074;SDS011;3578;51.568;6.932;2022-08-03T10:53:35;8.90;;;2.00;;
7074;SDS011;3578;51.568;6.932;2022-08-03T10:56:05;6.23;;;1.60;;
7074;SDS011;3578;51.568;6.932;2022-08-03T11:05:37;4.83;;;1.77;;
7074;SDS011;3578;51.568;6.932;2022-08-03T11:08:26;4.73;;;1.60;;
7074;SDS011;3578;51.568;6.932;2022-08-03T11:11:00;6.30;;;2.23;;
7074;SDS011;3578;51.568;6.932;2022-08-03T11:13:55;1.97;;;1.87;;
7074;SDS011;3578;51.568;6.932;2022-08-03T11:16:24;3.37;;;1.63;;
7074;SDS011;3578;51.568;6.932;2022-08-03T11:18:57;3.60;;;2.07;;
7074;SDS011;3578;51.568;6.932;2022-08-03T11:27:23;4.17;;;2.20;;
7074;SDS011;3578;51.568;6.932;2022-08-03T11:29:57;4.87;;;1.90;;
7074;SDS011;3578;51.568;6.932;2022-08-03T11:35:18;7.23;;;1.80;;
7074;SDS011;3578;51.568;6.932;2022-08-03T11:38:03;3.53;;;2.00;;
7074;SDS011;3578;51.568;6.932;2022-08-03T11:40:40;4.67;;;2.10;;
7074;SDS011;3578;51.568;6.932;2022-08-03T11:43:28;4.93;;;1.93;;
7074;SDS011;3578;51.568;6.932;2022-08-03T11:46:11;7.37;;;1.70;;
7074;SDS011;3578;51.568;6.932;2022-08-03T11:48:44;8.63;;;1.73;;
7074;SDS011;3578;51.568;6.932;2022-08-03T11:51:19;1.60;;;1.50;;
7074;SDS011;3578;51.568;6.932;2022-08-03T11:53:52;2.57;;;1.67;;
7074;SDS011;3578;51.568;6.932;2022-08-03T11:56:20;5.70;;;2.03;;
7074;SDS011;3578;51.568;6.932;2022-08-03T11:58:47;4.80;;;1.80;;
7074;SDS011;3578;51.568;6.932;2022-08-03T12:01:19;5.07;;;1.70;;
7074;SDS011;3578;51.568;6.932;2022-08-03T12:03:47;5.40;;;2.13;;
7074;SDS011;3578;51.568;6.932;2022-08-03T12:06:15;2.00;;;1.47;;
7074;SDS011;3578;51.568;6.932;2022-08-03T12:08:44;5.83;;;1.90;;
7074;SDS011;3578;51.568;6.932;2022-08-03T12:11:12;3.57;;;2.03;;
7074;SDS011;3578;51.568;6.932;2022-08-03T12:13:41;3.93;;;1.47;;
7074;SDS011;3578;51.568;6.932;2022-08-03T12:16:15;1.83;;;1.53;;
7074;SDS011;3578;51.568;6.932;2022-08-03T12:18:46;7.00;;;1.50;;
7074;SDS011;3578;51.568;6.932;2022-08-03T12:21:21;2.83;;;1.43;;
7074;SDS011;3578;51.568;6.932;2022-08-03T12:23:49;2.53;;;1.70;;
7074;SDS011;3578;51.568;6.932;2022-08-03T12:26:16;3.80;;;2.23;;
7074;SDS011;3578;51.568;6.932;2022-08-03T12:28:46;4.47;;;1.90;;
7074;SDS011;3578;51.568;6.932;2022-08-03T12:31:14;6.90;;;2.20;;
7074;SDS011;3578;51.568;6.932;2022-08-03T12:36:27;3.80;;;1.70;;
7074;SDS011;3578;51.568;6.932;2022-08-03T12:38:56;6.33;;;2.30;;
7074;SDS011;3578;51.568;6.932;2022-08-03T12:41:29;4.50;;;1.70;;
7074;SDS011;3578;51.568;6.932;2022-08-03T12:43:59;4.37;;;1.77;;
7074;SDS011;3578;51.568;6.932;2022-08-03T12:46:29;2.83;;;1.60;;
7074;SDS011;3578;51.568;6.932;2022-08-03T12:49:03;3.67;;;1.50;;
7074;SDS011;3578;51.568;6.932;2022-08-03T12:51:34;3.33;;;1.50;;
7074;SDS011;3578;51.568;6.932;2022-08-03T12:54:03;6.97;;;1.57;;
7074;SDS011;3578;51.568;6.932;2022-08-03T12:56:31;6.00;;;1.97;;
7074;SDS011;3578;51.568;6.932;2022-08-03T12:58:58;10.40;;;1.40;;
7074;SDS011;3578;51.568;6.932;2022-08-03T13:01:25;5.53;;;1.80;;
7074;SDS011;3578;51.568;6.932;2022-08-03T13:04:02;8.80;;;1.43;;
7074;SDS011;3578;51.568;6.932;2022-08-03T13:06:30;12.07;;;1.97;;
7074;SDS011;3578;51.568;6.932;2022-08-03T13:09:01;1.73;;;1.10;;
7074;SDS011;3578;51.568;6.932;2022-08-03T13:11:30;4.47;;;1.67;;
7074;SDS011;3578;51.568;6.932;2022-08-03T13:13:57;1.40;;;1.27;;
7074;SDS011;3578;51.568;6.932;2022-08-03T13:16:24;3.40;;;1.87;;
7074;SDS011;3578;51.568;6.932;2022-08-03T13:18:51;7.00;;;1.37;;
7074;SDS011;3578;51.568;6.932;2022-08-03T13:21:20;4.27;;;1.70;;
7074;SDS011;3578;51.568;6.932;2022-08-03T13:23:47;9.40;;;1.80;;
7074;SDS011;3578;51.568;6.932;2022-08-03T13:26:14;2.87;;;1.57;;
7074;SDS011;3578;51.568;6.932;2022-08-03T13:28:41;2.57;;;1.50;;
7074;SDS011;3578;51.568;6.932;2022-08-03T13:31:08;2.93;;;1.40;;
7074;SDS011;3578;51.568;6.932;2022-08-03T13:33:35;9.27;;;1.40;;
7074;SDS011;3578;51.568;6.932;2022-08-03T13:36:04;1.33;;;1.23;;
7074;SDS011;3578;51.568;6.932;2022-08-03T13:38:34;5.67;;;1.77;;
7074;SDS011;3578;51.568;6.932;2022-08-03T13:41:01;2.87;;;1.17;;
7074;SDS011;3578;51.568;6.932;2022-08-03T13:43:28;3.60;;;1.63;;
7074;SDS011;3578;51.568;6.932;2022-08-03T13:45:55;2.97;;;1.50;;
7074;SDS011;3578;51.568;6.932;2022-08-03T13:48:22;2.57;;;1.23;;
7074;SDS011;3578;51.568;6.932;2022-08-03T13:50:49;3.53;;;1.50;;
7074;SDS011;3578;51.568;6.932;2022-08-03T13:53:16;3.90;;;1.50;;
7074;SDS011;3578;51.568;6.932;2022-08-03T13:55:45;6.13;;;1.00;;
7074;SDS011;3578;51.568;6.932;2022-08-03T13:58:12;1.73;;;1.20;;
7074;SDS011;3578;51.568;6.932;2022-08-03T14:00:39;3.37;;;1.30;;
7074;SDS011;3578;51.568;6.932;2022-08-03T14:03:06;1.73;;;1.13;;
7074;SDS011;3578;51.568;6.932;2022-08-03T14:05:33;2.30;;;1.07;;
7074;SDS011;3578;51.568;6.932;2022-08-03T14:08:02;2.67;;;1.07;;
7074;SDS011;3578;51.568;6.932;2022-08-03T14:10:31;4.43;;;1.17;;
7074;SDS011;3578;51.568;6.932;2022-08-03T14:13:01;4.90;;;1.33;;
7074;SDS011;3578;51.568;6.932;2022-08-03T14:15:28;4.30;;;1.13;;
7074;SDS011;3578;51.568;6.932;2022-08-03T14:17:56;2.80;;;1.13;;
7074;SDS011;3578;51.568;6.932;2022-08-03T14:20:23;3.03;;;1.57;;
7074;SDS011;3578;51.568;6.932;2022-08-03T14:22:50;2.30;;;1.20;;
7074;SDS011;3578;51.568;6.932;2022-08-03T14:25:17;1.33;;;1.20;;
7074;SDS011;3578;51.568;6.932;2022-08-03T14:27:45;4.20;;;1.10;;
7074;SDS011;3578;51.568;6.932;2022-08-03T14:30:14;3.90;;;1.30;;
7074;SDS011;3578;51.568;6.932;2022-08-03T14:32:41;2.90;;;1.33;;
7074;SDS011;3578;51.568;6.932;2022-08-03T14:35:08;1.23;;;1.20;;
7074;SDS011;3578;51.568;6.932;2022-08-03T14:37:35;5.70;;;1.33;;
7074;SDS011;3578;51.568;6.932;2022-08-03T14:40:03;1.53;;;0.90;;
7074;SDS011;3578;51.568;6.932;2022-08-03T14:42:32;4.73;;;1.00;;
7074;SDS011;3578;51.568;6.932;2022-08-03T14:44:59;1.17;;;0.93;;
7074;SDS011;3578;51.568;6.932;2022-08-03T14:47:27;1.40;;;1.30;;
7074;SDS011;3578;51.568;6.932;2022-08-03T14:49:54;4.60;;;1.10;;
7074;SDS011;3578;51.568;6.932;2022-08-03T14:52:22;1.67;;;0.90;;
7074;SDS011;3578;51.568;6.932;2022-08-03T14:54:49;1.43;;;0.97;;
7074;SDS011;3578;51.568;6.932;2022-08-03T14:57:16;6.10;;;1.00;;
7074;SDS011;3578;51.568;6.932;2022-08-03T14:59:43;1.00;;;0.87;;
7074;SDS011;3578;51.568;6.932;2022-08-03T15:02:10;5.63;;;1.27;;
7074;SDS011;3578;51.568;6.932;2022-08-03T15:04:38;2.70;;;1.13;;
7074;SDS011;3578;51.568;6.932;2022-08-03T15:07:05;2.80;;;1.30;;
7074;SDS011;3578;51.568;6.932;2022-08-03T15:09:32;3.00;;;1.20;;
7074;SDS011;3578;51.568;6.932;2022-08-03T15:11:59;9.83;;;1.87;;
7074;SDS011;3578;51.568;6.932;2022-08-03T15:14:27;1.23;;;1.13;;
7074;SDS011;3578;51.568;6.932;2022-08-03T15:16:54;1.63;;;1.00;;
7074;SDS011;3578;51.568;6.932;2022-08-03T15:19:21;2.47;;;1.30;;
7074;SDS011;3578;51.568;6.932;2022-08-03T15:21:49;2.37;;;1.93;;
7074;SDS011;3578;51.568;6.932;2022-08-03T15:24:16;6.93;;;1.23;;
7074;SDS011;3578;51.568;6.932;2022-08-03T15:26:43;1.33;;;0.97;;
7074;SDS011;3578;51.568;6.932;2022-08-03T15:29:10;3.53;;;1.10;;
7074;SDS011;3578;51.568;6.932;2022-08-03T15:31:37;2.63;;;0.90;;
7074;SDS011;3578;51.568;6.932;2022-08-03T15:34:05;1.40;;;1.03;;
7074;SDS011;3578;51.568;6.932;2022-08-03T15:36:31;2.53;;;1.00;;
7074;SDS011;3578;51.568;6.932;2022-08-03T15:39:00;2.23;;;1.00;;
7074;SDS011;3578;51.568;6.932;2022-08-03T15:41:27;1.80;;;1.20;;
7074;SDS011;3578;51.568;6.932;2022-08-03T15:43:54;2.10;;;0.93;;
7074;SDS011;3578;51.568;6.932;2022-08-03T15:46:21;2.33;;;1.10;;
7074;SDS011;3578;51.568;6.932;2022-08-03T15:48:48;4.03;;;1.80;;